sensor_id;sensor_type;location;lat;lon;timestamp;P1;durP1;ratioP1;P2;durP2;ratioP2
70832;SDS011;58452;59.418;17.962;2022-12-20T00:00:56;19.10;;;11.68;;
70832;SDS011;58452;59.418;17.962;2022-12-20T00:03:22;16.55;;;11.38;;
70832;SDS011;58452;59.418;17.962;2022-12-20T00:05:47;19.40;;;11.00;;
70832;SDS011;58452;59.418;17.962;2022-12-20T00:08:13;16.20;;;10.70;;
70832;SDS011;58452;59.418;17.962;2022-12-20T00:10:40;17.92;;;11.43;;
70832;SDS011;58452;59.418;17.962;2022-12-20T00:13:07;17.70;;;11.23;;
70832;SDS011;58452;59.418;17.962;2022-12-20T00:15:33;17.52;;;11.95;;
70832;SDS011;58452;59.418;17.962;2022-12-20T00:17:59;15.65;;;11.70;;
70832;SDS011;58452;59.418;17.962;2022-12-20T00:20:25;19.67;;;11.73;;
70832;SDS011;58452;59.418;17.962;2022-12-20T00:22:51;17.63;;;10.93;;
70832;SDS011;58452;59.418;17.962;2022-12-20T00:25:17;13.82;;;9.80;;
70832;SDS011;58452;59.418;17.962;2022-12-20T00:27:44;19.48;;;11.90;;
70832;SDS011;58452;59.418;17.962;2022-12-20T00:30:10;15.68;;;10.80;;
70832;SDS011;58452;59.418;17.962;2022-12-20T00:32:36;15.27;;;10.75;;
70832;SDS011;58452;59.418;17.962;2022-12-20T00:35:02;15.20;;;10.52;;
70832;SDS011;58452;59.418;17.962;2022-12-20T00:37:31;18.70;;;10.98;;
70832;SDS011;58452;59.418;17.962;2022-12-20T00:39:56;17.25;;;12.40;;
70832;SDS011;58452;59.418;17.962;2022-12-20T00:42:21;17.48;;;11.18;;
70832;SDS011;58452;59.418;17.962;2022-12-20T00:44:47;17.83;;;10.65;;
70832;SDS011;58452;59.418;17.962;2022-12-20T00:47:12;18.83;;;11.13;;
70832;SDS011;58452;59.418;17.962;2022-12-20T00:49:39;20.45;;;12.73;;
70832;SDS011;58452;59.418;17.962;2022-12-20T00:52:05;20.80;;;12.02;;
70832;SDS011;58452;59.418;17.962;2022-12-20T00:54:31;20.27;;;12.82;;
70832;SDS011;58452;59.418;17.962;2022-12-20T00:56:56;22.80;;;15.25;;
70832;SDS011;58452;59.418;17.962;2022-12-20T00:59:22;21.98;;;13.65;;
70832;SDS011;58452;59.418;17.962;2022-12-20T01:01:47;21.20;;;13.27;;
70832;SDS011;58452;59.418;17.962;2022-12-20T01:04:13;21.65;;;12.40;;
70832;SDS011;58452;59.418;17.962;2022-12-20T01:06:38;21.13;;;12.35;;
70832;SDS011;58452;59.418;17.962;2022-12-20T01:09:04;19.88;;;13.77;;
70832;SDS011;58452;59.418;17.962;2022-12-20T01:11:31;24.10;;;13.98;;
70832;SDS011;58452;59.418;17.962;2022-12-20T01:13:59;22.88;;;15.63;;
70832;SDS011;58452;59.418;17.962;2022-12-20T01:16:31;25.77;;;15.52;;
70832;SDS011;58452;59.418;17.962;2022-12-20T01:19:01;27.52;;;15.23;;
70832;SDS011;58452;59.418;17.962;2022-12-20T01:21:28;31.60;;;16.77;;
70832;SDS011;58452;59.418;17.962;2022-12-20T01:23:53;26.23;;;16.45;;
70832;SDS011;58452;59.418;17.962;2022-12-20T01:26:21;27.10;;;18.02;;
70832;SDS011;58452;59.418;17.962;2022-12-20T01:28:48;30.23;;;16.92;;
70832;SDS011;58452;59.418;17.962;2022-12-20T01:31:17;24.45;;;16.00;;
70832;SDS011;58452;59.418;17.962;2022-12-20T01:33:44;29.05;;;17.35;;
70832;SDS011;58452;59.418;17.962;2022-12-20T01:36:11;29.27;;;18.02;;
70832;SDS011;58452;59.418;17.962;2022-12-20T01:38:41;26.52;;;16.50;;
70832;SDS011;58452;59.418;17.962;2022-12-20T01:41:07;30.45;;;18.30;;
70832;SDS011;58452;59.418;17.962;2022-12-20T01:43:44;26.85;;;17.23;;
70832;SDS011;58452;59.418;17.962;2022-12-20T01:46:10;29.63;;;18.42;;
70832;SDS011;58452;59.418;17.962;2022-12-20T01:48:35;31.05;;;18.17;;
70832;SDS011;58452;59.418;17.962;2022-12-20T01:51:01;31.95;;;18.98;;
70832;SDS011;58452;59.418;17.962;2022-12-20T01:53:27;29.65;;;17.23;;
70832;SDS011;58452;59.418;17.962;2022-12-20T01:55:53;28.40;;;17.42;;
70832;SDS011;58452;59.418;17.962;2022-12-20T01:58:19;35.95;;;18.35;;
70832;SDS011;58452;59.418;17.962;2022-12-20T02:00:46;33.20;;;18.02;;
70832;SDS011;58452;59.418;17.962;2022-12-20T02:03:12;29.23;;;16.35;;
70832;SDS011;58452;59.418;17.962;2022-12-20T02:05:40;30.40;;;17.42;;
70832;SDS011;58452;59.418;17.962;2022-12-20T02:08:09;31.02;;;17.10;;
70832;SDS011;58452;59.418;17.962;2022-12-20T02:16:09;31.90;;;18.60;;
70832;SDS011;58452;59.418;17.962;2022-12-20T02:18:45;31.73;;;17.45;;
70832;SDS011;58452;59.418;17.962;2022-12-20T02:21:29;29.77;;;18.30;;
70832;SDS011;58452;59.418;17.962;2022-12-20T02:29:34;29.02;;;17.02;;
70832;SDS011;58452;59.418;17.962;2022-12-20T02:34:43;30.15;;;17.83;;
70832;SDS011;58452;59.418;17.962;2022-12-20T02:37:10;31.23;;;17.92;;
70832;SDS011;58452;59.418;17.962;2022-12-20T02:39:36;28.50;;;16.55;;
70832;SDS011;58452;59.418;17.962;2022-12-20T02:42:11;33.15;;;16.70;;
70832;SDS011;58452;59.418;17.962;2022-12-20T02:44:46;28.50;;;16.80;;
70832;SDS011;58452;59.418;17.962;2022-12-20T02:47:37;27.30;;;16.15;;
70832;SDS011;58452;59.418;17.962;2022-12-20T02:50:06;30.70;;;17.30;;
70832;SDS011;58452;59.418;17.962;2022-12-20T02:52:34;35.30;;;18.70;;
70832;SDS011;58452;59.418;17.962;2022-12-20T02:55:00;34.60;;;18.67;;
70832;SDS011;58452;59.418;17.962;2022-12-20T02:57:32;34.30;;;18.88;;
70832;SDS011;58452;59.418;17.962;2022-12-20T03:00:18;36.00;;;19.25;;
70832;SDS011;58452;59.418;17.962;2022-12-20T03:02:45;30.20;;;18.63;;
70832;SDS011;58452;59.418;17.962;2022-12-20T03:05:31;29.35;;;17.33;;
70832;SDS011;58452;59.418;17.962;2022-12-20T03:07:59;32.50;;;18.15;;
70832;SDS011;58452;59.418;17.962;2022-12-20T03:10:24;32.47;;;17.20;;
70832;SDS011;58452;59.418;17.962;2022-12-20T03:12:50;30.38;;;18.45;;
70832;SDS011;58452;59.418;17.962;2022-12-20T03:15:16;32.53;;;16.63;;
70832;SDS011;58452;59.418;17.962;2022-12-20T03:17:41;31.33;;;17.20;;
70832;SDS011;58452;59.418;17.962;2022-12-20T03:20:07;30.58;;;17.80;;
70832;SDS011;58452;59.418;17.962;2022-12-20T03:22:35;33.20;;;17.98;;
70832;SDS011;58452;59.418;17.962;2022-12-20T03:25:01;35.17;;;18.52;;
70832;SDS011;58452;59.418;17.962;2022-12-20T03:27:26;32.80;;;17.52;;
70832;SDS011;58452;59.418;17.962;2022-12-20T03:29:52;30.75;;;16.75;;
70832;SDS011;58452;59.418;17.962;2022-12-20T03:32:18;27.67;;;16.75;;
70832;SDS011;58452;59.418;17.962;2022-12-20T03:34:43;27.73;;;17.23;;
70832;SDS011;58452;59.418;17.962;2022-12-20T03:37:08;33.30;;;17.17;;
70832;SDS011;58452;59.418;17.962;2022-12-20T03:39:34;30.42;;;17.10;;
70832;SDS011;58452;59.418;17.962;2022-12-20T03:42:00;33.42;;;18.25;;
70832;SDS011;58452;59.418;17.962;2022-12-20T03:44:25;37.95;;;18.77;;
70832;SDS011;58452;59.418;17.962;2022-12-20T03:46:50;30.45;;;17.15;;
70832;SDS011;58452;59.418;17.962;2022-12-20T03:49:16;30.77;;;17.58;;
70832;SDS011;58452;59.418;17.962;2022-12-20T03:51:41;34.08;;;18.80;;
70832;SDS011;58452;59.418;17.962;2022-12-20T03:54:07;31.42;;;18.88;;
70832;SDS011;58452;59.418;17.962;2022-12-20T03:56:32;38.15;;;19.75;;
70832;SDS011;58452;59.418;17.962;2022-12-20T03:58:58;29.88;;;17.48;;
70832;SDS011;58452;59.418;17.962;2022-12-20T04:01:24;31.63;;;17.75;;
70832;SDS011;58452;59.418;17.962;2022-12-20T04:03:52;32.75;;;17.85;;
70832;SDS011;58452;59.418;17.962;2022-12-20T04:06:18;29.88;;;17.50;;
70832;SDS011;58452;59.418;17.962;2022-12-20T04:08:44;33.15;;;18.00;;
70832;SDS011;58452;59.418;17.962;2022-12-20T04:11:10;34.53;;;17.30;;
70832;SDS011;58452;59.418;17.962;2022-12-20T04:13:43;30.45;;;17.95;;
70832;SDS011;58452;59.418;17.962;2022-12-20T04:16:14;29.13;;;17.48;;
70832;SDS011;58452;59.418;17.962;2022-12-20T04:18:41;34.00;;;17.85;;
70832;SDS011;58452;59.418;17.962;2022-12-20T04:21:10;27.75;;;17.27;;
70832;SDS011;58452;59.418;17.962;2022-12-20T04:23:36;30.25;;;19.67;;
70832;SDS011;58452;59.418;17.962;2022-12-20T04:26:03;34.20;;;18.88;;
70832;SDS011;58452;59.418;17.962;2022-12-20T04:28:30;30.50;;;18.08;;
70832;SDS011;58452;59.418;17.962;2022-12-20T04:30:57;29.77;;;17.05;;
70832;SDS011;58452;59.418;17.962;2022-12-20T04:33:23;27.92;;;17.40;;
70832;SDS011;58452;59.418;17.962;2022-12-20T04:35:49;29.02;;;16.30;;
70832;SDS011;58452;59.418;17.962;2022-12-20T04:38:16;26.45;;;15.57;;
70832;SDS011;58452;59.418;17.962;2022-12-20T04:40:42;32.38;;;17.50;;
70832;SDS011;58452;59.418;17.962;2022-12-20T04:43:07;26.00;;;17.17;;
70832;SDS011;58452;59.418;17.962;2022-12-20T04:45:33;27.02;;;15.15;;
70832;SDS011;58452;59.418;17.962;2022-12-20T04:47:58;30.52;;;17.25;;
70832;SDS011;58452;59.418;17.962;2022-12-20T04:50:24;28.70;;;15.45;;
70832;SDS011;58452;59.418;17.962;2022-12-20T04:52:49;28.05;;;16.15;;
70832;SDS011;58452;59.418;17.962;2022-12-20T04:55:38;28.13;;;14.48;;
70832;SDS011;58452;59.418;17.962;2022-12-20T04:58:05;27.70;;;17.40;;
70832;SDS011;58452;59.418;17.962;2022-12-20T05:00:31;29.38;;;17.35;;
70832;SDS011;58452;59.418;17.962;2022-12-20T05:02:57;28.38;;;16.75;;
70832;SDS011;58452;59.418;17.962;2022-12-20T05:05:22;27.55;;;14.73;;
70832;SDS011;58452;59.418;17.962;2022-12-20T05:07:48;28.73;;;16.05;;
70832;SDS011;58452;59.418;17.962;2022-12-20T05:10:14;32.70;;;16.45;;
70832;SDS011;58452;59.418;17.962;2022-12-20T05:12:40;31.20;;;16.52;;
70832;SDS011;58452;59.418;17.962;2022-12-20T05:15:05;24.98;;;15.98;;
70832;SDS011;58452;59.418;17.962;2022-12-20T05:17:31;21.25;;;13.25;;
70832;SDS011;58452;59.418;17.962;2022-12-20T05:19:57;27.77;;;14.20;;
70832;SDS011;58452;59.418;17.962;2022-12-20T05:22:23;21.80;;;13.95;;
70832;SDS011;58452;59.418;17.962;2022-12-20T05:25:08;24.20;;;14.68;;
70832;SDS011;58452;59.418;17.962;2022-12-20T05:27:53;21.17;;;11.75;;
70832;SDS011;58452;59.418;17.962;2022-12-20T05:30:18;21.55;;;13.25;;
70832;SDS011;58452;59.418;17.962;2022-12-20T05:32:44;20.83;;;12.38;;
70832;SDS011;58452;59.418;17.962;2022-12-20T05:35:09;18.98;;;11.52;;
70832;SDS011;58452;59.418;17.962;2022-12-20T05:37:35;24.75;;;12.90;;
70832;SDS011;58452;59.418;17.962;2022-12-20T05:40:00;19.90;;;12.25;;
70832;SDS011;58452;59.418;17.962;2022-12-20T05:42:26;23.08;;;13.18;;
70832;SDS011;58452;59.418;17.962;2022-12-20T05:44:51;21.15;;;12.73;;
70832;SDS011;58452;59.418;17.962;2022-12-20T05:47:16;18.30;;;12.00;;
70832;SDS011;58452;59.418;17.962;2022-12-20T05:49:42;18.92;;;11.93;;
70832;SDS011;58452;59.418;17.962;2022-12-20T05:52:07;22.50;;;12.38;;
70832;SDS011;58452;59.418;17.962;2022-12-20T05:54:33;20.27;;;11.80;;
70832;SDS011;58452;59.418;17.962;2022-12-20T05:56:58;17.27;;;10.68;;
70832;SDS011;58452;59.418;17.962;2022-12-20T05:59:24;19.23;;;10.27;;
70832;SDS011;58452;59.418;17.962;2022-12-20T06:01:49;20.65;;;12.00;;
70832;SDS011;58452;59.418;17.962;2022-12-20T06:04:15;16.35;;;10.15;;
70832;SDS011;58452;59.418;17.962;2022-12-20T06:06:40;19.20;;;11.43;;
70832;SDS011;58452;59.418;17.962;2022-12-20T06:09:05;20.00;;;10.73;;
70832;SDS011;58452;59.418;17.962;2022-12-20T06:11:31;19.52;;;11.13;;
70832;SDS011;58452;59.418;17.962;2022-12-20T06:13:56;19.55;;;11.65;;
70832;SDS011;58452;59.418;17.962;2022-12-20T06:16:23;17.55;;;10.77;;
70832;SDS011;58452;59.418;17.962;2022-12-20T06:18:49;20.00;;;10.30;;
70832;SDS011;58452;59.418;17.962;2022-12-20T06:21:15;16.80;;;9.45;;
70832;SDS011;58452;59.418;17.962;2022-12-20T06:23:40;15.32;;;9.35;;
70832;SDS011;58452;59.418;17.962;2022-12-20T06:26:06;18.00;;;9.65;;
70832;SDS011;58452;59.418;17.962;2022-12-20T06:28:33;16.13;;;9.98;;
70832;SDS011;58452;59.418;17.962;2022-12-20T06:30:59;16.23;;;11.25;;
70832;SDS011;58452;59.418;17.962;2022-12-20T06:33:24;17.13;;;10.18;;
70832;SDS011;58452;59.418;17.962;2022-12-20T06:35:50;20.10;;;9.20;;
70832;SDS011;58452;59.418;17.962;2022-12-20T06:38:15;17.30;;;10.13;;
70832;SDS011;58452;59.418;17.962;2022-12-20T06:40:41;14.88;;;9.65;;
70832;SDS011;58452;59.418;17.962;2022-12-20T06:43:07;16.67;;;11.05;;
70832;SDS011;58452;59.418;17.962;2022-12-20T06:45:32;17.15;;;10.77;;
70832;SDS011;58452;59.418;17.962;2022-12-20T06:47:58;14.38;;;9.52;;
70832;SDS011;58452;59.418;17.962;2022-12-20T06:50:23;15.02;;;9.77;;
70832;SDS011;58452;59.418;17.962;2022-12-20T06:52:49;15.00;;;10.40;;
70832;SDS011;58452;59.418;17.962;2022-12-20T06:55:14;15.65;;;9.23;;
70832;SDS011;58452;59.418;17.962;2022-12-20T06:57:40;17.92;;;9.88;;
70832;SDS011;58452;59.418;17.962;2022-12-20T07:00:07;14.98;;;9.23;;
70832;SDS011;58452;59.418;17.962;2022-12-20T07:02:34;16.77;;;8.82;;
70832;SDS011;58452;59.418;17.962;2022-12-20T07:04:59;15.07;;;10.10;;
70832;SDS011;58452;59.418;17.962;2022-12-20T07:07:25;14.35;;;9.82;;
70832;SDS011;58452;59.418;17.962;2022-12-20T07:09:50;13.68;;;8.35;;
70832;SDS011;58452;59.418;17.962;2022-12-20T07:12:16;13.77;;;9.00;;
70832;SDS011;58452;59.418;17.962;2022-12-20T07:14:41;17.92;;;10.27;;
70832;SDS011;58452;59.418;17.962;2022-12-20T07:17:07;13.57;;;9.35;;
70832;SDS011;58452;59.418;17.962;2022-12-20T07:19:33;16.85;;;10.43;;
70832;SDS011;58452;59.418;17.962;2022-12-20T07:22:00;14.02;;;9.55;;
70832;SDS011;58452;59.418;17.962;2022-12-20T07:24:26;16.95;;;10.00;;
70832;SDS011;58452;59.418;17.962;2022-12-20T07:26:52;12.23;;;7.63;;
70832;SDS011;58452;59.418;17.962;2022-12-20T07:29:17;15.52;;;9.55;;
70832;SDS011;58452;59.418;17.962;2022-12-20T07:31:42;19.13;;;9.73;;
70832;SDS011;58452;59.418;17.962;2022-12-20T07:34:08;12.27;;;8.30;;
70832;SDS011;58452;59.418;17.962;2022-12-20T07:36:34;13.18;;;8.80;;
70832;SDS011;58452;59.418;17.962;2022-12-20T07:39:00;13.60;;;9.15;;
70832;SDS011;58452;59.418;17.962;2022-12-20T07:41:25;10.68;;;8.23;;
70832;SDS011;58452;59.418;17.962;2022-12-20T07:43:51;14.90;;;9.15;;
70832;SDS011;58452;59.418;17.962;2022-12-20T07:46:17;16.48;;;9.40;;
70832;SDS011;58452;59.418;17.962;2022-12-20T07:48:43;18.48;;;10.43;;
70832;SDS011;58452;59.418;17.962;2022-12-20T07:51:20;13.60;;;8.93;;
70832;SDS011;58452;59.418;17.962;2022-12-20T07:53:49;14.18;;;7.70;;
70832;SDS011;58452;59.418;17.962;2022-12-20T07:56:21;15.48;;;9.23;;
70832;SDS011;58452;59.418;17.962;2022-12-20T07:58:47;16.48;;;9.52;;
70832;SDS011;58452;59.418;17.962;2022-12-20T08:01:15;13.43;;;8.65;;
70832;SDS011;58452;59.418;17.962;2022-12-20T08:03:43;16.23;;;8.90;;
70832;SDS011;58452;59.418;17.962;2022-12-20T08:06:11;17.88;;;8.85;;
70832;SDS011;58452;59.418;17.962;2022-12-20T08:08:39;16.95;;;9.48;;
70832;SDS011;58452;59.418;17.962;2022-12-20T08:11:11;12.73;;;8.55;;
70832;SDS011;58452;59.418;17.962;2022-12-20T08:13:37;13.30;;;9.07;;
70832;SDS011;58452;59.418;17.962;2022-12-20T08:16:04;15.27;;;8.30;;
70832;SDS011;58452;59.418;17.962;2022-12-20T08:18:29;14.30;;;8.57;;
70832;SDS011;58452;59.418;17.962;2022-12-20T08:20:55;12.63;;;8.32;;
70832;SDS011;58452;59.418;17.962;2022-12-20T08:23:21;15.23;;;8.57;;
70832;SDS011;58452;59.418;17.962;2022-12-20T08:25:47;13.32;;;9.55;;
70832;SDS011;58452;59.418;17.962;2022-12-20T08:28:12;16.60;;;8.55;;
70832;SDS011;58452;59.418;17.962;2022-12-20T08:30:38;13.68;;;8.77;;
70832;SDS011;58452;59.418;17.962;2022-12-20T08:33:03;14.73;;;9.15;;
70832;SDS011;58452;59.418;17.962;2022-12-20T08:35:29;16.15;;;10.30;;
70832;SDS011;58452;59.418;17.962;2022-12-20T08:37:55;12.98;;;9.00;;
70832;SDS011;58452;59.418;17.962;2022-12-20T08:40:21;12.27;;;8.77;;
70832;SDS011;58452;59.418;17.962;2022-12-20T08:42:46;13.23;;;8.43;;
70832;SDS011;58452;59.418;17.962;2022-12-20T08:45:12;16.48;;;9.98;;
70832;SDS011;58452;59.418;17.962;2022-12-20T08:47:38;9.77;;;7.95;;
70832;SDS011;58452;59.418;17.962;2022-12-20T08:50:03;14.02;;;9.50;;
70832;SDS011;58452;59.418;17.962;2022-12-20T08:52:30;12.45;;;8.52;;
70832;SDS011;58452;59.418;17.962;2022-12-20T08:54:56;14.50;;;8.55;;
70832;SDS011;58452;59.418;17.962;2022-12-20T08:57:21;14.00;;;8.65;;
70832;SDS011;58452;59.418;17.962;2022-12-20T08:59:47;11.10;;;7.55;;
70832;SDS011;58452;59.418;17.962;2022-12-20T09:02:12;16.42;;;9.57;;
70832;SDS011;58452;59.418;17.962;2022-12-20T09:04:37;15.23;;;9.95;;
70832;SDS011;58452;59.418;17.962;2022-12-20T09:07:03;16.52;;;9.10;;
70832;SDS011;58452;59.418;17.962;2022-12-20T09:09:28;12.30;;;8.57;;
70832;SDS011;58452;59.418;17.962;2022-12-20T09:11:54;13.63;;;9.05;;
70832;SDS011;58452;59.418;17.962;2022-12-20T09:14:19;10.60;;;8.52;;
70832;SDS011;58452;59.418;17.962;2022-12-20T09:16:45;14.75;;;8.68;;
70832;SDS011;58452;59.418;17.962;2022-12-20T09:19:11;12.65;;;8.43;;
70832;SDS011;58452;59.418;17.962;2022-12-20T09:21:38;12.00;;;7.85;;
70832;SDS011;58452;59.418;17.962;2022-12-20T09:24:04;11.77;;;8.88;;
70832;SDS011;58452;59.418;17.962;2022-12-20T09:26:30;13.98;;;7.95;;
70832;SDS011;58452;59.418;17.962;2022-12-20T09:28:56;12.02;;;7.95;;
70832;SDS011;58452;59.418;17.962;2022-12-20T09:31:23;13.80;;;9.38;;
70832;SDS011;58452;59.418;17.962;2022-12-20T09:33:53;12.45;;;7.55;;
70832;SDS011;58452;59.418;17.962;2022-12-20T09:36:20;14.95;;;7.43;;
70832;SDS011;58452;59.418;17.962;2022-12-20T09:38:46;12.27;;;8.15;;
70832;SDS011;58452;59.418;17.962;2022-12-20T09:43:50;14.57;;;8.38;;
70832;SDS011;58452;59.418;17.962;2022-12-20T09:46:16;14.15;;;8.82;;
70832;SDS011;58452;59.418;17.962;2022-12-20T09:48:42;13.55;;;8.60;;
70832;SDS011;58452;59.418;17.962;2022-12-20T09:53:57;15.20;;;8.73;;
70832;SDS011;58452;59.418;17.962;2022-12-20T09:59:51;18.23;;;9.98;;
70832;SDS011;58452;59.418;17.962;2022-12-20T10:02:22;14.27;;;9.68;;
70832;SDS011;58452;59.418;17.962;2022-12-20T10:04:49;14.10;;;8.35;;
70832;SDS011;58452;59.418;17.962;2022-12-20T10:15:21;16.92;;;9.88;;
70832;SDS011;58452;59.418;17.962;2022-12-20T10:26:10;17.75;;;9.48;;
70832;SDS011;58452;59.418;17.962;2022-12-20T10:28:37;12.50;;;8.40;;
70832;SDS011;58452;59.418;17.962;2022-12-20T10:31:12;11.40;;;8.57;;
70832;SDS011;58452;59.418;17.962;2022-12-20T10:33:40;15.02;;;8.70;;
70832;SDS011;58452;59.418;17.962;2022-12-20T10:36:16;12.30;;;8.25;;
70832;SDS011;58452;59.418;17.962;2022-12-20T10:38:46;11.50;;;7.72;;
70832;SDS011;58452;59.418;17.962;2022-12-20T10:41:23;13.18;;;9.25;;
70832;SDS011;58452;59.418;17.962;2022-12-20T10:46:37;11.95;;;7.80;;
70832;SDS011;58452;59.418;17.962;2022-12-20T10:54:41;12.45;;;7.97;;
70832;SDS011;58452;59.418;17.962;2022-12-20T10:59:44;15.07;;;8.10;;
70832;SDS011;58452;59.418;17.962;2022-12-20T11:02:27;14.07;;;8.68;;
70832;SDS011;58452;59.418;17.962;2022-12-20T11:04:58;11.40;;;8.23;;
70832;SDS011;58452;59.418;17.962;2022-12-20T11:07:30;13.27;;;8.60;;
70832;SDS011;58452;59.418;17.962;2022-12-20T11:09:58;10.43;;;8.68;;
70832;SDS011;58452;59.418;17.962;2022-12-20T11:12:26;11.07;;;8.27;;
70832;SDS011;58452;59.418;17.962;2022-12-20T11:15:06;14.68;;;9.30;;
70832;SDS011;58452;59.418;17.962;2022-12-20T11:17:40;10.60;;;8.15;;
70832;SDS011;58452;59.418;17.962;2022-12-20T11:30:24;14.13;;;9.02;;
70832;SDS011;58452;59.418;17.962;2022-12-20T11:38:09;15.68;;;8.75;;
70832;SDS011;58452;59.418;17.962;2022-12-20T11:40:45;9.80;;;7.50;;
70832;SDS011;58452;59.418;17.962;2022-12-20T11:46:06;16.27;;;11.07;;
70832;SDS011;58452;59.418;17.962;2022-12-20T11:48:52;15.90;;;8.70;;
70832;SDS011;58452;59.418;17.962;2022-12-20T11:56:49;10.70;;;7.78;;
70832;SDS011;58452;59.418;17.962;2022-12-20T11:59:30;12.02;;;8.50;;
70832;SDS011;58452;59.418;17.962;2022-12-20T12:02:12;13.05;;;8.48;;
70832;SDS011;58452;59.418;17.962;2022-12-20T12:04:47;11.50;;;7.75;;
70832;SDS011;58452;59.418;17.962;2022-12-20T12:07:20;11.52;;;8.13;;
70832;SDS011;58452;59.418;17.962;2022-12-20T12:12:46;11.63;;;8.40;;
70832;SDS011;58452;59.418;17.962;2022-12-20T12:17:56;12.10;;;8.50;;
70832;SDS011;58452;59.418;17.962;2022-12-20T12:20:44;12.63;;;8.55;;
70832;SDS011;58452;59.418;17.962;2022-12-20T12:23:23;11.35;;;8.18;;
70832;SDS011;58452;59.418;17.962;2022-12-20T12:25:54;14.55;;;9.02;;
70832;SDS011;58452;59.418;17.962;2022-12-20T12:28:21;13.00;;;8.82;;
70832;SDS011;58452;59.418;17.962;2022-12-20T12:30:51;17.77;;;8.82;;
70832;SDS011;58452;59.418;17.962;2022-12-20T12:33:32;14.07;;;9.32;;
70832;SDS011;58452;59.418;17.962;2022-12-20T12:41:47;12.27;;;8.45;;
70832;SDS011;58452;59.418;17.962;2022-12-20T12:47:10;12.55;;;8.85;;
70832;SDS011;58452;59.418;17.962;2022-12-20T12:49:45;11.57;;;9.05;;
70832;SDS011;58452;59.418;17.962;2022-12-20T12:55:01;14.07;;;9.43;;
70832;SDS011;58452;59.418;17.962;2022-12-20T12:57:26;13.80;;;9.32;;
70832;SDS011;58452;59.418;17.962;2022-12-20T12:59:52;12.20;;;9.13;;
70832;SDS011;58452;59.418;17.962;2022-12-20T13:02:22;15.60;;;9.55;;
70832;SDS011;58452;59.418;17.962;2022-12-20T13:05:50;14.70;;;10.20;;
70832;SDS011;58452;59.418;17.962;2022-12-20T13:07:45;13.93;;;9.02;;
70832;SDS011;58452;59.418;17.962;2022-12-20T13:16:05;15.18;;;10.13;;
70832;SDS011;58452;59.418;17.962;2022-12-20T13:18:44;12.52;;;9.13;;
70832;SDS011;58452;59.418;17.962;2022-12-20T13:24:25;19.35;;;10.27;;
70832;SDS011;58452;59.418;17.962;2022-12-20T13:27:00;14.45;;;9.43;;
70832;SDS011;58452;59.418;17.962;2022-12-20T13:29:42;17.30;;;10.35;;
70832;SDS011;58452;59.418;17.962;2022-12-20T13:37:56;16.15;;;9.07;;
70832;SDS011;58452;59.418;17.962;2022-12-20T13:43:09;12.63;;;8.70;;
70832;SDS011;58452;59.418;17.962;2022-12-20T13:45:37;13.55;;;8.95;;
70832;SDS011;58452;59.418;17.962;2022-12-20T13:48:07;17.30;;;9.63;;
70832;SDS011;58452;59.418;17.962;2022-12-20T13:50:39;14.77;;;9.13;;
70832;SDS011;58452;59.418;17.962;2022-12-20T13:53:15;14.35;;;9.18;;
70832;SDS011;58452;59.418;17.962;2022-12-20T13:55:42;14.90;;;8.80;;
70832;SDS011;58452;59.418;17.962;2022-12-20T13:58:15;14.07;;;8.52;;
70832;SDS011;58452;59.418;17.962;2022-12-20T14:00:43;13.52;;;8.38;;
70832;SDS011;58452;59.418;17.962;2022-12-20T14:03:13;13.32;;;9.15;;
70832;SDS011;58452;59.418;17.962;2022-12-20T14:05:46;18.52;;;10.70;;
70832;SDS011;58452;59.418;17.962;2022-12-20T14:08:15;15.52;;;9.00;;
70832;SDS011;58452;59.418;17.962;2022-12-20T14:10:43;17.55;;;9.07;;
70832;SDS011;58452;59.418;17.962;2022-12-20T14:13:16;15.35;;;9.40;;
70832;SDS011;58452;59.418;17.962;2022-12-20T14:15:45;11.43;;;8.65;;
70832;SDS011;58452;59.418;17.962;2022-12-20T14:18:20;11.00;;;8.63;;
70832;SDS011;58452;59.418;17.962;2022-12-20T14:23:47;12.27;;;8.57;;
70832;SDS011;58452;59.418;17.962;2022-12-20T14:26:15;18.35;;;10.27;;
70832;SDS011;58452;59.418;17.962;2022-12-20T14:29:01;11.65;;;8.93;;
70832;SDS011;58452;59.418;17.962;2022-12-20T14:36:38;16.25;;;9.90;;
70832;SDS011;58452;59.418;17.962;2022-12-20T14:39:23;16.90;;;9.38;;
70832;SDS011;58452;59.418;17.962;2022-12-20T14:42:01;16.35;;;9.30;;
70832;SDS011;58452;59.418;17.962;2022-12-20T14:44:32;13.35;;;9.20;;
70832;SDS011;58452;59.418;17.962;2022-12-20T14:47:15;18.50;;;9.45;;
70832;SDS011;58452;59.418;17.962;2022-12-20T14:49:58;13.43;;;9.15;;
70832;SDS011;58452;59.418;17.962;2022-12-20T14:52:35;16.73;;;9.68;;
70832;SDS011;58452;59.418;17.962;2022-12-20T14:57:46;17.58;;;10.82;;
70832;SDS011;58452;59.418;17.962;2022-12-20T15:00:26;14.80;;;9.80;;
70832;SDS011;58452;59.418;17.962;2022-12-20T15:10:34;15.82;;;10.00;;
70832;SDS011;58452;59.418;17.962;2022-12-20T15:13:00;15.27;;;10.00;;
70832;SDS011;58452;59.418;17.962;2022-12-20T15:15:26;22.20;;;10.75;;
70832;SDS011;58452;59.418;17.962;2022-12-20T15:17:51;19.95;;;11.15;;
70832;SDS011;58452;59.418;17.962;2022-12-20T15:20:17;21.58;;;11.25;;
70832;SDS011;58452;59.418;17.962;2022-12-20T15:22:42;17.67;;;11.93;;
70832;SDS011;58452;59.418;17.962;2022-12-20T15:25:13;22.85;;;11.00;;
70832;SDS011;58452;59.418;17.962;2022-12-20T15:27:40;24.02;;;10.95;;
70832;SDS011;58452;59.418;17.962;2022-12-20T15:30:10;22.88;;;11.57;;
70832;SDS011;58452;59.418;17.962;2022-12-20T15:32:37;25.13;;;10.85;;
70832;SDS011;58452;59.418;17.962;2022-12-20T15:35:05;23.00;;;11.25;;
70832;SDS011;58452;59.418;17.962;2022-12-20T15:37:36;20.85;;;11.00;;
70832;SDS011;58452;59.418;17.962;2022-12-20T15:40:02;26.50;;;13.07;;
70832;SDS011;58452;59.418;17.962;2022-12-20T15:42:28;25.65;;;11.90;;
70832;SDS011;58452;59.418;17.962;2022-12-20T15:44:53;25.38;;;12.35;;
70832;SDS011;58452;59.418;17.962;2022-12-20T15:47:19;25.92;;;11.75;;
70832;SDS011;58452;59.418;17.962;2022-12-20T15:49:44;23.52;;;12.50;;
70832;SDS011;58452;59.418;17.962;2022-12-20T15:52:15;26.40;;;13.65;;
70832;SDS011;58452;59.418;17.962;2022-12-20T15:54:44;27.38;;;13.55;;
70832;SDS011;58452;59.418;17.962;2022-12-20T15:57:10;32.95;;;14.63;;
70832;SDS011;58452;59.418;17.962;2022-12-20T15:59:37;24.08;;;13.05;;
70832;SDS011;58452;59.418;17.962;2022-12-20T16:02:08;28.73;;;13.70;;
70832;SDS011;58452;59.418;17.962;2022-12-20T16:04:47;29.65;;;12.88;;
70832;SDS011;58452;59.418;17.962;2022-12-20T16:07:12;23.13;;;12.73;;
70832;SDS011;58452;59.418;17.962;2022-12-20T16:09:38;22.63;;;12.15;;
70832;SDS011;58452;59.418;17.962;2022-12-20T16:12:04;25.10;;;12.30;;
70832;SDS011;58452;59.418;17.962;2022-12-20T16:14:45;24.65;;;12.27;;
70832;SDS011;58452;59.418;17.962;2022-12-20T16:17:11;32.20;;;13.55;;
70832;SDS011;58452;59.418;17.962;2022-12-20T16:19:38;29.00;;;12.55;;
70832;SDS011;58452;59.418;17.962;2022-12-20T16:22:03;26.25;;;12.30;;
70832;SDS011;58452;59.418;17.962;2022-12-20T16:24:29;24.17;;;12.55;;
70832;SDS011;58452;59.418;17.962;2022-12-20T16:26:54;23.95;;;13.50;;